sensor_id;sensor_type;location;lat;lon;timestamp;temperature;humidity
37322;DHT22;23697;48.684;9.032;2022-09-12T00:01:08;12.10;86.50
37322;DHT22;23697;48.684;9.032;2022-09-12T00:03:36;12.10;86.60
37322;DHT22;23697;48.684;9.032;2022-09-12T00:06:07;12.10;86.70
37322;DHT22;23697;48.684;9.032;2022-09-12T00:08:36;12.10;86.70
37322;DHT22;23697;48.684;9.032;2022-09-12T00:11:18;12.10;86.80
37322;DHT22;23697;48.684;9.032;2022-09-12T00:14:01;12.10;86.80
37322;DHT22;23697;48.684;9.032;2022-09-12T00:16:30;12.00;86.70
37322;DHT22;23697;48.684;9.032;2022-09-12T00:18:58;12.00;86.80
37322;DHT22;23697;48.684;9.032;2022-09-12T00:21:26;12.00;86.80
37322;DHT22;23697;48.684;9.032;2022-09-12T00:23:54;11.90;86.70
37322;DHT22;23697;48.684;9.032;2022-09-12T00:26:23;11.90;86.80
37322;DHT22;23697;48.684;9.032;2022-09-12T00:28:50;11.90;87.00
37322;DHT22;23697;48.684;9.032;2022-09-12T00:31:19;11.90;87.00
37322;DHT22;23697;48.684;9.032;2022-09-12T00:33:48;11.90;87.10
37322;DHT22;23697;48.684;9.032;2022-09-12T00:36:17;11.80;87.10
37322;DHT22;23697;48.684;9.032;2022-09-12T00:38:48;11.90;87.00
37322;DHT22;23697;48.684;9.032;2022-09-12T00:41:19;11.90;87.10
37322;DHT22;23697;48.684;9.032;2022-09-12T00:43:48;11.90;87.10
37322;DHT22;23697;48.684;9.032;2022-09-12T00:46:33;11.90;87.10
37322;DHT22;23697;48.684;9.032;2022-09-12T00:49:03;11.80;87.10
37322;DHT22;23697;48.684;9.032;2022-09-12T00:51:35;11.80;87.10
37322;DHT22;23697;48.684;9.032;2022-09-12T00:54:09;11.80;87.20
37322;DHT22;23697;48.684;9.032;2022-09-12T00:56:56;11.80;87.20
37322;DHT22;23697;48.684;9.032;2022-09-12T00:59:26;11.80;87.20
37322;DHT22;23697;48.684;9.032;2022-09-12T01:01:55;11.70;87.20
37322;DHT22;23697;48.684;9.032;2022-09-12T01:04:23;11.80;87.10
37322;DHT22;23697;48.684;9.032;2022-09-12T01:06:52;11.80;87.00
37322;DHT22;23697;48.684;9.032;2022-09-12T01:09:21;11.70;87.20
37322;DHT22;23697;48.684;9.032;2022-09-12T01:11:51;11.70;87.20
37322;DHT22;23697;48.684;9.032;2022-09-12T01:14:20;11.60;87.10
37322;DHT22;23697;48.684;9.032;2022-09-12T01:16:49;11.60;87.10
37322;DHT22;23697;48.684;9.032;2022-09-12T01:19:31;11.50;87.00
37322;DHT22;23697;48.684;9.032;2022-09-12T01:22:19;11.50;87.10
37322;DHT22;23697;48.684;9.032;2022-09-12T01:24:55;11.40;87.20
37322;DHT22;23697;48.684;9.032;2022-09-12T01:27:41;11.40;87.20
37322;DHT22;23697;48.684;9.032;2022-09-12T01:30:29;11.40;87.20
37322;DHT22;23697;48.684;9.032;2022-09-12T01:33:09;11.40;87.20
37322;DHT22;23697;48.684;9.032;2022-09-12T01:35:45;11.40;87.10
37322;DHT22;23697;48.684;9.032;2022-09-12T01:38:22;11.40;87.10
37322;DHT22;23697;48.684;9.032;2022-09-12T01:40:58;11.40;87.10
37322;DHT22;23697;48.684;9.032;2022-09-12T01:43:30;11.40;87.10
37322;DHT22;23697;48.684;9.032;2022-09-12T01:46:06;11.40;87.20
37322;DHT22;23697;48.684;9.032;2022-09-12T01:48:37;11.30;87.20
37322;DHT22;23697;48.684;9.032;2022-09-12T01:51:06;11.30;87.30
37322;DHT22;23697;48.684;9.032;2022-09-12T01:53:38;11.30;87.30
37322;DHT22;23697;48.684;9.032;2022-09-12T01:56:09;11.30;87.20
37322;DHT22;23697;48.684;9.032;2022-09-12T01:58:42;11.20;87.30
37322;DHT22;23697;48.684;9.032;2022-09-12T02:01:14;11.10;87.30
37322;DHT22;23697;48.684;9.032;2022-09-12T02:03:46;11.10;87.20
37322;DHT22;23697;48.684;9.032;2022-09-12T02:06:18;11.10;87.40
37322;DHT22;23697;48.684;9.032;2022-09-12T02:08:48;11.10;87.40
37322;DHT22;23697;48.684;9.032;2022-09-12T02:11:18;11.10;87.50
37322;DHT22;23697;48.684;9.032;2022-09-12T02:13:49;11.10;87.50
37322;DHT22;23697;48.684;9.032;2022-09-12T02:16:25;11.10;87.50
37322;DHT22;23697;48.684;9.032;2022-09-12T02:18:59;11.10;87.50
37322;DHT22;23697;48.684;9.032;2022-09-12T02:21:32;11.10;87.40
37322;DHT22;23697;48.684;9.032;2022-09-12T02:24:02;11.10;87.30
37322;DHT22;23697;48.684;9.032;2022-09-12T02:26:33;11.10;87.40
37322;DHT22;23697;48.684;9.032;2022-09-12T02:29:03;11.10;87.40
37322;DHT22;23697;48.684;9.032;2022-09-12T02:31:35;11.10;87.40
37322;DHT22;23697;48.684;9.032;2022-09-12T02:34:14;11.00;87.40
37322;DHT22;23697;48.684;9.032;2022-09-12T02:36:48;10.90;87.70
37322;DHT22;23697;48.684;9.032;2022-09-12T02:39:17;10.90;87.60
37322;DHT22;23697;48.684;9.032;2022-09-12T02:41:45;11.00;87.60
37322;DHT22;23697;48.684;9.032;2022-09-12T02:44:13;11.00;87.50
37322;DHT22;23697;48.684;9.032;2022-09-12T02:46:44;10.90;87.50
37322;DHT22;23697;48.684;9.032;2022-09-12T02:49:13;10.90;87.60
37322;DHT22;23697;48.684;9.032;2022-09-12T02:51:41;10.90;87.60
37322;DHT22;23697;48.684;9.032;2022-09-12T02:54:09;10.90;87.50
37322;DHT22;23697;48.684;9.032;2022-09-12T02:56:40;10.90;87.50
37322;DHT22;23697;48.684;9.032;2022-09-12T02:59:13;10.90;87.50
37322;DHT22;23697;48.684;9.032;2022-09-12T03:04:47;10.80;87.50
37322;DHT22;23697;48.684;9.032;2022-09-12T03:07:30;10.80;87.60
37322;DHT22;23697;48.684;9.032;2022-09-12T03:10:07;10.80;87.50
37322;DHT22;23697;48.684;9.032;2022-09-12T03:12:46;10.70;87.40
37322;DHT22;23697;48.684;9.032;2022-09-12T03:15:25;10.70;87.40
37322;DHT22;23697;48.684;9.032;2022-09-12T03:18:06;10.70;87.40
37322;DHT22;23697;48.684;9.032;2022-09-12T03:20:44;10.70;87.40
37322;DHT22;23697;48.684;9.032;2022-09-12T03:23:20;10.70;87.40
37322;DHT22;23697;48.684;9.032;2022-09-12T03:25:53;10.60;87.50
37322;DHT22;23697;48.684;9.032;2022-09-12T03:28:22;10.60;87.50
37322;DHT22;23697;48.684;9.032;2022-09-12T03:30:50;10.60;87.40
37322;DHT22;23697;48.684;9.032;2022-09-12T03:33:22;10.60;87.50
37322;DHT22;23697;48.684;9.032;2022-09-12T03:35:50;10.60;87.50
37322;DHT22;23697;48.684;9.032;2022-09-12T03:38:19;10.60;87.50
37322;DHT22;23697;48.684;9.032;2022-09-12T03:40:46;10.60;87.60
37322;DHT22;23697;48.684;9.032;2022-09-12T03:43:15;10.60;87.60
37322;DHT22;23697;48.684;9.032;2022-09-12T03:45:42;10.60;87.70
37322;DHT22;23697;48.684;9.032;2022-09-12T03:48:09;10.60;87.70
37322;DHT22;23697;48.684;9.032;2022-09-12T03:50:37;10.50;87.70
37322;DHT22;23697;48.684;9.032;2022-09-12T03:53:04;10.50;87.60
37322;DHT22;23697;48.684;9.032;2022-09-12T03:55:31;10.50;87.60
37322;DHT22;23697;48.684;9.032;2022-09-12T03:57:58;10.50;87.50
37322;DHT22;23697;48.684;9.032;2022-09-12T04:00:25;10.50;87.60
37322;DHT22;23697;48.684;9.032;2022-09-12T04:02:57;10.50;87.50
37322;DHT22;23697;48.684;9.032;2022-09-12T04:05:26;10.50;87.50
37322;DHT22;23697;48.684;9.032;2022-09-12T04:07:54;10.50;87.60
37322;DHT22;23697;48.684;9.032;2022-09-12T04:10:22;10.40;87.60
37322;DHT22;23697;48.684;9.032;2022-09-12T04:12:49;10.40;87.70
37322;DHT22;23697;48.684;9.032;2022-09-12T04:15:16;10.50;87.60
37322;DHT22;23697;48.684;9.032;2022-09-12T04:17:43;10.50;87.60
37322;DHT22;23697;48.684;9.032;2022-09-12T04:20:12;10.40;87.70
37322;DHT22;23697;48.684;9.032;2022-09-12T04:22:49;10.40;87.70
37322;DHT22;23697;48.684;9.032;2022-09-12T04:25:25;10.30;87.60
37322;DHT22;23697;48.684;9.032;2022-09-12T04:27:53;10.30;87.60
37322;DHT22;23697;48.684;9.032;2022-09-12T04:30:20;10.40;87.50
37322;DHT22;23697;48.684;9.032;2022-09-12T04:32:46;10.30;87.60
37322;DHT22;23697;48.684;9.032;2022-09-12T04:35:13;10.30;87.60
37322;DHT22;23697;48.684;9.032;2022-09-12T04:37:42;10.30;87.60
37322;DHT22;23697;48.684;9.032;2022-09-12T04:40:10;10.30;87.70
37322;DHT22;23697;48.684;9.032;2022-09-12T04:42:38;10.20;87.70
37322;DHT22;23697;48.684;9.032;2022-09-12T04:45:06;10.20;87.70
37322;DHT22;23697;48.684;9.032;2022-09-12T04:47:33;10.20;87.60
37322;DHT22;23697;48.684;9.032;2022-09-12T04:50:00;10.20;87.50
37322;DHT22;23697;48.684;9.032;2022-09-12T04:52:28;10.10;87.50
37322;DHT22;23697;48.684;9.032;2022-09-12T04:54:55;10.10;87.50
37322;DHT22;23697;48.684;9.032;2022-09-12T04:57:24;10.10;87.50
37322;DHT22;23697;48.684;9.032;2022-09-12T04:59:52;10.10;87.50
37322;DHT22;23697;48.684;9.032;2022-09-12T05:02:20;10.10;87.60
37322;DHT22;23697;48.684;9.032;2022-09-12T05:04:50;10.10;87.70
37322;DHT22;23697;48.684;9.032;2022-09-12T05:07:25;10.10;87.70
37322;DHT22;23697;48.684;9.032;2022-09-12T05:09:55;10.10;87.60
37322;DHT22;23697;48.684;9.032;2022-09-12T05:12:23;10.10;87.60
37322;DHT22;23697;48.684;9.032;2022-09-12T05:14:51;10.20;87.60
37322;DHT22;23697;48.684;9.032;2022-09-12T05:17:21;10.10;87.70
37322;DHT22;23697;48.684;9.032;2022-09-12T05:19:50;10.10;87.70
37322;DHT22;23697;48.684;9.032;2022-09-12T05:22:20;10.10;87.70
37322;DHT22;23697;48.684;9.032;2022-09-12T05:24:47;10.20;87.70
37322;DHT22;23697;48.684;9.032;2022-09-12T05:27:14;10.10;87.70
37322;DHT22;23697;48.684;9.032;2022-09-12T05:29:41;10.10;87.80
37322;DHT22;23697;48.684;9.032;2022-09-12T05:32:18;10.20;87.90
37322;DHT22;23697;48.684;9.032;2022-09-12T05:34:48;10.20;87.80
37322;DHT22;23697;48.684;9.032;2022-09-12T05:37:27;10.20;87.80
37322;DHT22;23697;48.684;9.032;2022-09-12T05:39:56;10.30;87.90
37322;DHT22;23697;48.684;9.032;2022-09-12T05:42:24;10.30;88.00
37322;DHT22;23697;48.684;9.032;2022-09-12T05:44:51;10.40;88.00
37322;DHT22;23697;48.684;9.032;2022-09-12T05:47:22;10.40;88.00
37322;DHT22;23697;48.684;9.032;2022-09-12T05:49:51;10.40;88.00
37322;DHT22;23697;48.684;9.032;2022-09-12T05:52:20;10.50;87.90
37322;DHT22;23697;48.684;9.032;2022-09-12T05:54:47;10.50;87.90
37322;DHT22;23697;48.684;9.032;2022-09-12T05:57:14;10.60;87.90
37322;DHT22;23697;48.684;9.032;2022-09-12T05:59:41;10.60;87.90
37322;DHT22;23697;48.684;9.032;2022-09-12T06:02:13;10.60;88.20
37322;DHT22;23697;48.684;9.032;2022-09-12T06:04:46;10.70;88.30
37322;DHT22;23697;48.684;9.032;2022-09-12T06:07:16;10.80;88.40
37322;DHT22;23697;48.684;9.032;2022-09-12T06:09:45;10.90;88.40
37322;DHT22;23697;48.684;9.032;2022-09-12T06:12:12;11.00;88.40
37322;DHT22;23697;48.684;9.032;2022-09-12T06:14:39;11.10;88.40
37322;DHT22;23697;48.684;9.032;2022-09-12T06:17:06;11.10;88.50
37322;DHT22;23697;48.684;9.032;2022-09-12T06:19:33;11.20;88.40
37322;DHT22;23697;48.684;9.032;2022-09-12T06:22:02;11.30;88.40
37322;DHT22;23697;48.684;9.032;2022-09-12T06:24:29;11.40;88.40
37322;DHT22;23697;48.684;9.032;2022-09-12T06:26:55;11.50;88.40
37322;DHT22;23697;48.684;9.032;2022-09-12T06:29:24;11.60;88.40
37322;DHT22;23697;48.684;9.032;2022-09-12T06:31:52;11.70;88.30
37322;DHT22;23697;48.684;9.032;2022-09-12T06:34:19;11.80;88.30
37322;DHT22;23697;48.684;9.032;2022-09-12T06:36:47;11.90;88.30
37322;DHT22;23697;48.684;9.032;2022-09-12T06:39:17;12.00;88.40
37322;DHT22;23697;48.684;9.032;2022-09-12T06:41:45;12.10;88.30
37322;DHT22;23697;48.684;9.032;2022-09-12T06:44:17;12.10;88.20
37322;DHT22;23697;48.684;9.032;2022-09-12T06:46:44;12.20;88.20
37322;DHT22;23697;48.684;9.032;2022-09-12T06:49:11;12.30;88.20
37322;DHT22;23697;48.684;9.032;2022-09-12T06:51:39;12.50;88.20
37322;DHT22;23697;48.684;9.032;2022-09-12T06:54:10;12.60;88.20
37322;DHT22;23697;48.684;9.032;2022-09-12T06:56:39;12.70;88.10
37322;DHT22;23697;48.684;9.032;2022-09-12T06:59:06;12.80;88.10
37322;DHT22;23697;48.684;9.032;2022-09-12T07:01:33;13.00;88.20
37322;DHT22;23697;48.684;9.032;2022-09-12T07:04:01;13.10;88.10
37322;DHT22;23697;48.684;9.032;2022-09-12T07:06:35;13.30;88.10
37322;DHT22;23697;48.684;9.032;2022-09-12T07:09:06;13.50;88.00
37322;DHT22;23697;48.684;9.032;2022-09-12T07:11:35;13.70;87.90
37322;DHT22;23697;48.684;9.032;2022-09-12T07:14:05;13.90;87.70
37322;DHT22;23697;48.684;9.032;2022-09-12T07:16:36;14.10;87.80
37322;DHT22;23697;48.684;9.032;2022-09-12T07:19:04;14.30;87.50
37322;DHT22;23697;48.684;9.032;2022-09-12T07:21:32;14.50;87.20
37322;DHT22;23697;48.684;9.032;2022-09-12T07:24:01;14.70;86.90
37322;DHT22;23697;48.684;9.032;2022-09-12T07:26:29;14.90;86.20
37322;DHT22;23697;48.684;9.032;2022-09-12T07:28:56;15.10;85.80
37322;DHT22;23697;48.684;9.032;2022-09-12T07:31:26;15.30;85.20
37322;DHT22;23697;48.684;9.032;2022-09-12T07:33:53;15.50;84.90
37322;DHT22;23697;48.684;9.032;2022-09-12T07:36:21;15.60;83.50
37322;DHT22;23697;48.684;9.032;2022-09-12T07:38:53;15.90;83.50
37322;DHT22;23697;48.684;9.032;2022-09-12T07:41:21;16.10;82.50
37322;DHT22;23697;48.684;9.032;2022-09-12T07:43:50;16.40;82.50
37322;DHT22;23697;48.684;9.032;2022-09-12T07:46:17;16.60;81.70
37322;DHT22;23697;48.684;9.032;2022-09-12T07:48:49;16.80;80.00
37322;DHT22;23697;48.684;9.032;2022-09-12T07:51:17;17.00;79.50
37322;DHT22;23697;48.684;9.032;2022-09-12T07:53:44;17.10;78.20
37322;DHT22;23697;48.684;9.032;2022-09-12T07:56:12;17.30;77.60
37322;DHT22;23697;48.684;9.032;2022-09-12T07:58:40;17.50;77.30
37322;DHT22;23697;48.684;9.032;2022-09-12T08:01:09;17.70;76.60
37322;DHT22;23697;48.684;9.032;2022-09-12T08:03:37;17.90;75.60
37322;DHT22;23697;48.684;9.032;2022-09-12T08:06:18;18.10;74.60
37322;DHT22;23697;48.684;9.032;2022-09-12T08:08:59;18.30;74.40
37322;DHT22;23697;48.684;9.032;2022-09-12T08:11:28;18.50;73.30
37322;DHT22;23697;48.684;9.032;2022-09-12T08:13:58;18.70;72.90
37322;DHT22;23697;48.684;9.032;2022-09-12T08:16:29;18.80;71.00
37322;DHT22;23697;48.684;9.032;2022-09-12T08:18:58;18.90;69.90
37322;DHT22;23697;48.684;9.032;2022-09-12T08:21:28;19.10;69.60
37322;DHT22;23697;48.684;9.032;2022-09-12T08:23:57;19.10;67.90
37322;DHT22;23697;48.684;9.032;2022-09-12T08:26:25;19.30;68.70
37322;DHT22;23697;48.684;9.032;2022-09-12T08:28:52;19.40;68.40
37322;DHT22;23697;48.684;9.032;2022-09-12T08:31:21;19.50;66.20
37322;DHT22;23697;48.684;9.032;2022-09-12T08:33:48;19.60;68.20
37322;DHT22;23697;48.684;9.032;2022-09-12T08:36:17;19.70;67.20
37322;DHT22;23697;48.684;9.032;2022-09-12T08:38:47;19.90;66.70
37322;DHT22;23697;48.684;9.032;2022-09-12T08:41:22;20.10;67.70
37322;DHT22;23697;48.684;9.032;2022-09-12T08:44:08;20.10;65.80
37322;DHT22;23697;48.684;9.032;2022-09-12T08:46:43;20.10;64.60
37322;DHT22;23697;48.684;9.032;2022-09-12T08:49:22;20.10;64.60
37322;DHT22;23697;48.684;9.032;2022-09-12T08:51:51;20.20;67.00
37322;DHT22;23697;48.684;9.032;2022-09-12T08:54:24;20.50;65.00
37322;DHT22;23697;48.684;9.032;2022-09-12T08:56:54;20.60;65.30
37322;DHT22;23697;48.684;9.032;2022-09-12T08:59:22;20.70;62.10
37322;DHT22;23697;48.684;9.032;2022-09-12T09:01:53;20.90;62.60
37322;DHT22;23697;48.684;9.032;2022-09-12T09:04:34;21.10;64.00
37322;DHT22;23697;48.684;9.032;2022-09-12T09:07:21;21.20;63.10
37322;DHT22;23697;48.684;9.032;2022-09-12T09:10:07;21.40;61.40
37322;DHT22;23697;48.684;9.032;2022-09-12T09:12:42;21.60;60.80
37322;DHT22;23697;48.684;9.032;2022-09-12T09:15:36;21.70;61.20
37322;DHT22;23697;48.684;9.032;2022-09-12T09:18:11;21.90;60.60
37322;DHT22;23697;48.684;9.032;2022-09-12T09:20:44;22.20;59.80
37322;DHT22;23697;48.684;9.032;2022-09-12T09:23:14;22.10;58.00
37322;DHT22;23697;48.684;9.032;2022-09-12T09:25:50;21.80;56.10
37322;DHT22;23697;48.684;9.032;2022-09-12T09:28:28;21.80;57.80
37322;DHT22;23697;48.684;9.032;2022-09-12T09:30:57;22.00;58.40
37322;DHT22;23697;48.684;9.032;2022-09-12T09:33:27;22.10;55.80
37322;DHT22;23697;48.684;9.032;2022-09-12T09:36:02;22.10;56.50
37322;DHT22;23697;48.684;9.032;2022-09-12T09:38:42;22.30;56.70
37322;DHT22;23697;48.684;9.032;2022-09-12T09:41:25;22.40;55.30
37322;DHT22;23697;48.684;9.032;2022-09-12T09:43:58;22.50;55.70
37322;DHT22;23697;48.684;9.032;2022-09-12T09:46:26;22.60;56.00
37322;DHT22;23697;48.684;9.032;2022-09-12T09:48:54;22.70;54.50
37322;DHT22;23697;48.684;9.032;2022-09-12T09:51:26;22.70;53.20
37322;DHT22;23697;48.684;9.032;2022-09-12T09:53:57;22.80;54.30
37322;DHT22;23697;48.684;9.032;2022-09-12T09:56:30;22.90;53.50
37322;DHT22;23697;48.684;9.032;2022-09-12T09:59:08;23.00;53.80
37322;DHT22;23697;48.684;9.032;2022-09-12T10:01:36;22.90;51.50
37322;DHT22;23697;48.684;9.032;2022-09-12T10:04:04;23.00;54.50
37322;DHT22;23697;48.684;9.032;2022-09-12T10:06:41;23.10;52.20
37322;DHT22;23697;48.684;9.032;2022-09-12T10:09:19;23.20;51.30
37322;DHT22;23697;48.684;9.032;2022-09-12T10:11:48;23.40;53.20
37322;DHT22;23697;48.684;9.032;2022-09-12T10:14:34;23.40;50.80
37322;DHT22;23697;48.684;9.032;2022-09-12T10:17:04;23.40;51.70
37322;DHT22;23697;48.684;9.032;2022-09-12T10:19:47;23.40;49.60
37322;DHT22;23697;48.684;9.032;2022-09-12T10:22:17;23.60;49.80
37322;DHT22;23697;48.684;9.032;2022-09-12T10:24:58;23.80;49.10
37322;DHT22;23697;48.684;9.032;2022-09-12T10:27:41;24.00;47.10
37322;DHT22;23697;48.684;9.032;2022-09-12T10:30:17;24.10;46.30
37322;DHT22;23697;48.684;9.032;2022-09-12T10:32:45;24.10;47.40
37322;DHT22;23697;48.684;9.032;2022-09-12T10:35:18;24.10;44.40
37322;DHT22;23697;48.684;9.032;2022-09-12T10:37:54;24.10;45.70
37322;DHT22;23697;48.684;9.032;2022-09-12T10:40:25;24.10;46.60
37322;DHT22;23697;48.684;9.032;2022-09-12T10:42:55;24.20;47.30
37322;DHT22;23697;48.684;9.032;2022-09-12T10:45:25;24.20;46.40
37322;DHT22;23697;48.684;9.032;2022-09-12T10:47:54;24.20;46.70
37322;DHT22;23697;48.684;9.032;2022-09-12T10:50:26;24.10;43.00
37322;DHT22;23697;48.684;9.032;2022-09-12T10:52:54;24.10;42.70
37322;DHT22;23697;48.684;9.032;2022-09-12T10:56:02;24.10;41.30
37322;DHT22;23697;48.684;9.032;2022-09-12T10:58:39;24.10;41.30
37322;DHT22;23697;48.684;9.032;2022-09-12T11:01:17;24.00;43.30
37322;DHT22;23697;48.684;9.032;2022-09-12T11:04:01;24.20;41.60
37322;DHT22;23697;48.684;9.032;2022-09-12T11:06:39;24.20;43.00
37322;DHT22;23697;48.684;9.032;2022-09-12T11:09:13;24.20;40.70
37322;DHT22;23697;48.684;9.032;2022-09-12T11:11:49;24.30;43.70
37322;DHT22;23697;48.684;9.032;2022-09-12T11:14:38;24.50;45.00
37322;DHT22;23697;48.684;9.032;2022-09-12T11:17:17;24.70;44.10
37322;DHT22;23697;48.684;9.032;2022-09-12T11:20:02;24.80;43.60
37322;DHT22;23697;48.684;9.032;2022-09-12T11:22:42;25.10;44.50
37322;DHT22;23697;48.684;9.032;2022-09-12T11:25:22;25.10;42.50
37322;DHT22;23697;48.684;9.032;2022-09-12T11:28:23;25.10;43.30
37322;DHT22;23697;48.684;9.032;2022-09-12T11:33:51;25.00;42.70
37322;DHT22;23697;48.684;9.032;2022-09-12T11:36:28;25.00;43.00
37322;DHT22;23697;48.684;9.032;2022-09-12T11:42:24;24.80;42.00
37322;DHT22;23697;48.684;9.032;2022-09-12T11:44:59;24.80;42.20
37322;DHT22;23697;48.684;9.032;2022-09-12T11:47:31;25.00;43.10
37322;DHT22;23697;48.684;9.032;2022-09-12T11:50:03;25.10;41.90
37322;DHT22;23697;48.684;9.032;2022-09-12T11:52:36;25.10;44.00
37322;DHT22;23697;48.684;9.032;2022-09-12T11:55:08;25.20;42.40
37322;DHT22;23697;48.684;9.032;2022-09-12T11:57:41;25.20;42.80
37322;DHT22;23697;48.684;9.032;2022-09-12T12:00:15;25.40;42.50
37322;DHT22;23697;48.684;9.032;2022-09-12T12:02:58;25.50;41.30
37322;DHT22;23697;48.684;9.032;2022-09-12T12:05:33;25.60;41.00
37322;DHT22;23697;48.684;9.032;2022-09-12T12:08:04;25.60;40.30
37322;DHT22;23697;48.684;9.032;2022-09-12T12:10:34;25.60;42.60
37322;DHT22;23697;48.684;9.032;2022-09-12T12:13:05;25.60;40.30
37322;DHT22;23697;48.684;9.032;2022-09-12T12:15:33;25.60;40.50
37322;DHT22;23697;48.684;9.032;2022-09-12T12:18:06;25.40;42.40
37322;DHT22;23697;48.684;9.032;2022-09-12T12:24:19;25.10;40.70
37322;DHT22;23697;48.684;9.032;2022-09-12T12:26:59;25.10;41.80
37322;DHT22;23697;48.684;9.032;2022-09-12T12:29:40;25.10;41.60
37322;DHT22;23697;48.684;9.032;2022-09-12T12:32:24;25.20;42.80
37322;DHT22;23697;48.684;9.032;2022-09-12T12:35:09;25.40;43.50
37322;DHT22;23697;48.684;9.032;2022-09-12T12:37:55;25.60;41.60
37322;DHT22;23697;48.684;9.032;2022-09-12T12:40:26;25.70;42.00
37322;DHT22;23697;48.684;9.032;2022-09-12T12:42:58;25.80;41.40
37322;DHT22;23697;48.684;9.032;2022-09-12T12:46:09;25.80;41.10
37322;DHT22;23697;48.684;9.032;2022-09-12T12:49:01;25.60;38.80
37322;DHT22;23697;48.684;9.032;2022-09-12T12:51:54;25.50;39.50
37322;DHT22;23697;48.684;9.032;2022-09-12T12:54:46;25.70;41.80
37322;DHT22;23697;48.684;9.032;2022-09-12T12:57:17;25.70;40.60
37322;DHT22;23697;48.684;9.032;2022-09-12T12:59:48;25.60;39.10
37322;DHT22;23697;48.684;9.032;2022-09-12T13:02:19;25.60;39.20
37322;DHT22;23697;48.684;9.032;2022-09-12T13:04:47;25.60;37.40
37322;DHT22;23697;48.684;9.032;2022-09-12T13:07:26;25.70;39.30
37322;DHT22;23697;48.684;9.032;2022-09-12T13:09:54;25.90;37.70
37322;DHT22;23697;48.684;9.032;2022-09-12T13:12:24;25.80;37.90
37322;DHT22;23697;48.684;9.032;2022-09-12T13:14:54;25.90;39.50
37322;DHT22;23697;48.684;9.032;2022-09-12T13:17:26;25.90;37.10
37322;DHT22;23697;48.684;9.032;2022-09-12T13:20:03;25.90;37.80
37322;DHT22;23697;48.684;9.032;2022-09-12T13:22:41;26.00;38.70
37322;DHT22;23697;48.684;9.032;2022-09-12T13:25:23;25.90;37.40
37322;DHT22;23697;48.684;9.032;2022-09-12T13:28:14;25.90;39.60
37322;DHT22;23697;48.684;9.032;2022-09-12T13:30:44;25.90;40.20
37322;DHT22;23697;48.684;9.032;2022-09-12T13:33:18;25.80;40.10
37322;DHT22;23697;48.684;9.032;2022-09-12T13:38:56;25.80;37.00
37322;DHT22;23697;48.684;9.032;2022-09-12T13:45:05;25.60;38.40
37322;DHT22;23697;48.684;9.032;2022-09-12T13:57:27;25.50;38.30
37322;DHT22;23697;48.684;9.032;2022-09-12T13:59:55;25.50;40.60
37322;DHT22;23697;48.684;9.032;2022-09-12T14:02:24;25.60;40.20
37322;DHT22;23697;48.684;9.032;2022-09-12T14:04:53;25.70;40.00
37322;DHT22;23697;48.684;9.032;2022-09-12T14:07:38;25.70;38.90
37322;DHT22;23697;48.684;9.032;2022-09-12T14:10:06;25.80;40.10
37322;DHT22;23697;48.684;9.032;2022-09-12T14:12:37;25.80;39.40
37322;DHT22;23697;48.684;9.032;2022-09-12T14:18:27;25.90;38.00
37322;DHT22;23697;48.684;9.032;2022-09-12T14:20:58;25.90;38.10
37322;DHT22;23697;48.684;9.032;2022-09-12T14:23:28;25.90;39.90
37322;DHT22;23697;48.684;9.032;2022-09-12T14:25:57;25.80;39.00
37322;DHT22;23697;48.684;9.032;2022-09-12T14:28:27;25.90;39.30
37322;DHT22;23697;48.684;9.032;2022-09-12T14:31:03;25.90;39.30
37322;DHT22;23697;48.684;9.032;2022-09-12T14:33:33;26.00;39.80
37322;DHT22;23697;48.684;9.032;2022-09-12T14:36:18;26.00;39.00
37322;DHT22;23697;48.684;9.032;2022-09-12T14:38:49;25.80;38.20
37322;DHT22;23697;48.684;9.032;2022-09-12T14:41:25;25.70;39.80
37322;DHT22;23697;48.684;9.032;2022-09-12T14:43:57;25.70;40.40
37322;DHT22;23697;48.684;9.032;2022-09-12T14:46:27;25.80;40.10
37322;DHT22;23697;48.684;9.032;2022-09-12T14:48:59;25.90;41.20
37322;DHT22;23697;48.684;9.032;2022-09-12T14:51:31;25.70;38.70
37322;DHT22;23697;48.684;9.032;2022-09-12T14:53:59;25.50;39.90
37322;DHT22;23697;48.684;9.032;2022-09-12T14:56:39;25.50;39.50
37322;DHT22;23697;48.684;9.032;2022-09-12T14:59:23;25.60;39.60
37322;DHT22;23697;48.684;9.032;2022-09-12T15:02:20;25.20;39.50
37322;DHT22;23697;48.684;9.032;2022-09-12T15:07:55;25.40;40.20
37322;DHT22;23697;48.684;9.032;2022-09-12T15:10:26;25.60;39.40
37322;DHT22;23697;48.684;9.032;2022-09-12T15:13:16;25.60;38.20
37322;DHT22;23697;48.684;9.032;2022-09-12T15:15:46;25.70;39.80
37322;DHT22;23697;48.684;9.032;2022-09-12T15:18:15;25.70;39.70
37322;DHT22;23697;48.684;9.032;2022-09-12T15:20:44;25.70;40.30
37322;DHT22;23697;48.684;9.032;2022-09-12T15:23:17;25.80;41.60
37322;DHT22;23697;48.684;9.032;2022-09-12T15:25:44;25.80;39.30
37322;DHT22;23697;48.684;9.032;2022-09-12T15:28:17;25.80;41.30
37322;DHT22;23697;48.684;9.032;2022-09-12T15:30:46;25.80;41.20
37322;DHT22;23697;48.684;9.032;2022-09-12T15:33:14;25.70;42.00
37322;DHT22;23697;48.684;9.032;2022-09-12T15:35:41;25.70;40.70
37322;DHT22;23697;48.684;9.032;2022-09-12T15:38:08;25.60;41.60
37322;DHT22;23697;48.684;9.032;2022-09-12T15:40:35;25.60;42.00
37322;DHT22;23697;48.684;9.032;2022-09-12T15:43:01;25.50;41.50
37322;DHT22;23697;48.684;9.032;2022-09-12T15:45:30;25.50;42.90
37322;DHT22;23697;48.684;9.032;2022-09-12T15:48:00;25.40;41.70
37322;DHT22;23697;48.684;9.032;2022-09-12T15:50:27;25.40;43.00
37322;DHT22;23697;48.684;9.032;2022-09-12T15:52:54;25.30;41.40
37322;DHT22;23697;48.684;9.032;2022-09-12T15:55:23;25.20;41.40
37322;DHT22;23697;48.684;9.032;2022-09-12T15:57:50;25.20;43.80
37322;DHT22;23697;48.684;9.032;2022-09-12T16:00:18;25.10;41.50
37322;DHT22;23697;48.684;9.032;2022-09-12T16:02:46;25.10;42.10
37322;DHT22;23697;48.684;9.032;2022-09-12T16:05:17;25.10;40.70
37322;DHT22;23697;48.684;9.032;2022-09-12T16:07:44;24.90;39.40
37322;DHT22;23697;48.684;9.032;2022-09-12T16:10:14;25.00;42.10
37322;DHT22;23697;48.684;9.032;2022-09-12T16:12:41;24.80;42.80
37322;DHT22;23697;48.684;9.032;2022-09-12T16:15:12;24.60;43.70
37322;DHT22;23697;48.684;9.032;2022-09-12T16:17:39;24.50;43.60
37322;DHT22;23697;48.684;9.032;2022-09-12T16:20:07;24.50;44.50
37322;DHT22;23697;48.684;9.032;2022-09-12T16:22:35;24.30;44.20
37322;DHT22;23697;48.684;9.032;2022-09-12T16:25:03;24.20;44.80
37322;DHT22;23697;48.684;9.032;2022-09-12T16:27:31;24.20;46.20
37322;DHT22;23697;48.684;9.032;2022-09-12T16:29:58;24.00;44.40
37322;DHT22;23697;48.684;9.032;2022-09-12T16:32:25;23.90;44.70
37322;DHT22;23697;48.684;9.032;2022-09-12T16:35:02;23.70;45.90
37322;DHT22;23697;48.684;9.032;2022-09-12T16:37:32;23.60;46.20